sensor_id;sensor_type;location;lat;lon;timestamp;temperature;humidity
22526;DHT22;11429;50.842;4.386;2023-07-29T00:01:37;20.40;99.90
22526;DHT22;11429;50.842;4.386;2023-07-29T00:04:06;20.10;99.90
22526;DHT22;11429;50.842;4.386;2023-07-29T00:06:33;20.00;99.90
22526;DHT22;11429;50.842;4.386;2023-07-29T00:08:59;20.00;99.90
22526;DHT22;11429;50.842;4.386;2023-07-29T00:11:25;20.00;99.90
22526;DHT22;11429;50.842;4.386;2023-07-29T00:13:50;20.00;99.90
22526;DHT22;11429;50.842;4.386;2023-07-29T00:16:16;19.90;99.90
22526;DHT22;11429;50.842;4.386;2023-07-29T00:18:43;20.00;99.90
22526;DHT22;11429;50.842;4.386;2023-07-29T00:21:09;20.00;99.90
22526;DHT22;11429;50.842;4.386;2023-07-29T00:23:34;20.10;99.90
22526;DHT22;11429;50.842;4.386;2023-07-29T00:26:00;20.10;99.90
22526;DHT22;11429;50.842;4.386;2023-07-29T00:28:26;20.00;99.90
22526;DHT22;11429;50.842;4.386;2023-07-29T00:30:51;19.80;99.90
22526;DHT22;11429;50.842;4.386;2023-07-29T00:33:17;19.80;99.90
22526;DHT22;11429;50.842;4.386;2023-07-29T00:35:43;19.70;99.90
22526;DHT22;11429;50.842;4.386;2023-07-29T00:38:08;19.60;99.90
22526;DHT22;11429;50.842;4.386;2023-07-29T00:40:35;19.50;99.90
22526;DHT22;11429;50.842;4.386;2023-07-29T00:43:02;19.50;99.90
22526;DHT22;11429;50.842;4.386;2023-07-29T00:45:29;19.50;99.90
22526;DHT22;11429;50.842;4.386;2023-07-29T00:47:56;19.60;99.90
22526;DHT22;11429;50.842;4.386;2023-07-29T00:50:22;19.50;99.90
22526;DHT22;11429;50.842;4.386;2023-07-29T00:52:49;19.40;99.90
22526;DHT22;11429;50.842;4.386;2023-07-29T00:55:14;19.20;99.90
22526;DHT22;11429;50.842;4.386;2023-07-29T00:57:41;19.20;99.90
22526;DHT22;11429;50.842;4.386;2023-07-29T01:00:08;19.30;99.90
22526;DHT22;11429;50.842;4.386;2023-07-29T01:02:35;19.30;99.90
22526;DHT22;11429;50.842;4.386;2023-07-29T01:05:01;19.30;99.90
22526;DHT22;11429;50.842;4.386;2023-07-29T01:07:33;19.30;99.90
22526;DHT22;11429;50.842;4.386;2023-07-29T01:13:04;19.40;99.90
22526;DHT22;11429;50.842;4.386;2023-07-29T01:15:33;19.40;99.90
22526;DHT22;11429;50.842;4.386;2023-07-29T01:18:05;19.40;99.90
22526;DHT22;11429;50.842;4.386;2023-07-29T01:20:35;19.40;99.90
22526;DHT22;11429;50.842;4.386;2023-07-29T01:23:02;19.20;99.90
22526;DHT22;11429;50.842;4.386;2023-07-29T01:25:28;19.10;99.90
22526;DHT22;11429;50.842;4.386;2023-07-29T01:27:54;19.10;99.90
22526;DHT22;11429;50.842;4.386;2023-07-29T01:30:23;19.20;99.90
22526;DHT22;11429;50.842;4.386;2023-07-29T01:33:06;19.20;99.90
22526;DHT22;11429;50.842;4.386;2023-07-29T01:35:45;18.90;99.90
22526;DHT22;11429;50.842;4.386;2023-07-29T01:38:18;18.70;99.90
22526;DHT22;11429;50.842;4.386;2023-07-29T01:40:47;18.60;99.90
22526;DHT22;11429;50.842;4.386;2023-07-29T01:43:13;18.90;99.90
22526;DHT22;11429;50.842;4.386;2023-07-29T01:45:40;18.90;99.90
22526;DHT22;11429;50.842;4.386;2023-07-29T01:48:06;19.00;99.90
22526;DHT22;11429;50.842;4.386;2023-07-29T01:50:32;18.80;99.90
22526;DHT22;11429;50.842;4.386;2023-07-29T01:52:58;19.00;99.90
22526;DHT22;11429;50.842;4.386;2023-07-29T01:55:24;18.90;99.90
22526;DHT22;11429;50.842;4.386;2023-07-29T01:57:50;18.90;99.90
22526;DHT22;11429;50.842;4.386;2023-07-29T02:00:17;19.10;99.90
22526;DHT22;11429;50.842;4.386;2023-07-29T02:02:43;18.90;99.90
22526;DHT22;11429;50.842;4.386;2023-07-29T02:05:09;18.80;99.90
22526;DHT22;11429;50.842;4.386;2023-07-29T02:07:35;18.80;99.90
22526;DHT22;11429;50.842;4.386;2023-07-29T02:10:00;18.80;99.90
22526;DHT22;11429;50.842;4.386;2023-07-29T02:12:26;18.90;99.90
22526;DHT22;11429;50.842;4.386;2023-07-29T02:14:52;18.90;99.90
22526;DHT22;11429;50.842;4.386;2023-07-29T02:17:17;18.80;99.90
22526;DHT22;11429;50.842;4.386;2023-07-29T02:19:43;19.00;99.90
22526;DHT22;11429;50.842;4.386;2023-07-29T02:22:10;19.00;99.90
22526;DHT22;11429;50.842;4.386;2023-07-29T02:24:36;19.10;99.90
22526;DHT22;11429;50.842;4.386;2023-07-29T02:27:02;19.00;99.90
22526;DHT22;11429;50.842;4.386;2023-07-29T02:29:27;19.00;99.90
22526;DHT22;11429;50.842;4.386;2023-07-29T02:31:53;18.90;99.90
22526;DHT22;11429;50.842;4.386;2023-07-29T02:34:19;18.80;99.90
22526;DHT22;11429;50.842;4.386;2023-07-29T02:36:44;18.70;99.90
22526;DHT22;11429;50.842;4.386;2023-07-29T02:39:11;18.70;99.90
22526;DHT22;11429;50.842;4.386;2023-07-29T02:41:36;18.60;99.90
22526;DHT22;11429;50.842;4.386;2023-07-29T02:44:02;18.60;99.90
22526;DHT22;11429;50.842;4.386;2023-07-29T02:46:28;18.50;99.90
22526;DHT22;11429;50.842;4.386;2023-07-29T02:48:54;18.60;99.90
22526;DHT22;11429;50.842;4.386;2023-07-29T02:51:20;18.50;99.90
22526;DHT22;11429;50.842;4.386;2023-07-29T02:53:45;18.70;99.90
22526;DHT22;11429;50.842;4.386;2023-07-29T02:56:11;18.70;99.90
22526;DHT22;11429;50.842;4.386;2023-07-29T02:58:37;18.80;99.90
22526;DHT22;11429;50.842;4.386;2023-07-29T03:01:04;18.70;99.90
22526;DHT22;11429;50.842;4.386;2023-07-29T03:03:31;18.80;99.90
22526;DHT22;11429;50.842;4.386;2023-07-29T03:05:59;18.90;99.90
22526;DHT22;11429;50.842;4.386;2023-07-29T03:08:25;18.80;99.90
22526;DHT22;11429;50.842;4.386;2023-07-29T03:10:51;18.70;99.90
22526;DHT22;11429;50.842;4.386;2023-07-29T03:13:16;18.60;99.90
22526;DHT22;11429;50.842;4.386;2023-07-29T03:15:42;18.50;99.90
22526;DHT22;11429;50.842;4.386;2023-07-29T03:18:08;18.40;99.90
22526;DHT22;11429;50.842;4.386;2023-07-29T03:20:33;18.50;99.90
22526;DHT22;11429;50.842;4.386;2023-07-29T03:22:59;18.60;99.90
22526;DHT22;11429;50.842;4.386;2023-07-29T03:25:24;18.30;99.90
22526;DHT22;11429;50.842;4.386;2023-07-29T03:27:50;18.40;99.90
22526;DHT22;11429;50.842;4.386;2023-07-29T03:30:19;18.40;99.90
22526;DHT22;11429;50.842;4.386;2023-07-29T03:32:46;18.40;99.90
22526;DHT22;11429;50.842;4.386;2023-07-29T03:35:12;18.30;99.90
22526;DHT22;11429;50.842;4.386;2023-07-29T03:37:38;18.20;99.90
22526;DHT22;11429;50.842;4.386;2023-07-29T03:40:04;18.10;99.90
22526;DHT22;11429;50.842;4.386;2023-07-29T03:42:30;18.30;99.90
22526;DHT22;11429;50.842;4.386;2023-07-29T03:44:56;18.40;99.90
22526;DHT22;11429;50.842;4.386;2023-07-29T03:47:21;18.20;99.90
22526;DHT22;11429;50.842;4.386;2023-07-29T03:49:47;18.00;99.90
22526;DHT22;11429;50.842;4.386;2023-07-29T03:52:13;18.10;99.90
22526;DHT22;11429;50.842;4.386;2023-07-29T03:54:38;18.10;99.90
22526;DHT22;11429;50.842;4.386;2023-07-29T03:57:04;18.10;99.90
22526;DHT22;11429;50.842;4.386;2023-07-29T03:59:30;18.20;99.90
22526;DHT22;11429;50.842;4.386;2023-07-29T04:01:55;18.10;99.90
22526;DHT22;11429;50.842;4.386;2023-07-29T04:04:21;18.20;99.90
22526;DHT22;11429;50.842;4.386;2023-07-29T04:06:47;18.30;99.90
22526;DHT22;11429;50.842;4.386;2023-07-29T04:09:13;18.40;99.90
22526;DHT22;11429;50.842;4.386;2023-07-29T04:11:38;18.50;99.90
22526;DHT22;11429;50.842;4.386;2023-07-29T04:14:04;18.50;99.90
22526;DHT22;11429;50.842;4.386;2023-07-29T04:16:30;18.60;99.90
22526;DHT22;11429;50.842;4.386;2023-07-29T04:18:56;18.60;99.90
22526;DHT22;11429;50.842;4.386;2023-07-29T04:21:21;18.50;99.90
22526;DHT22;11429;50.842;4.386;2023-07-29T04:23:47;18.40;99.90
22526;DHT22;11429;50.842;4.386;2023-07-29T04:26:13;18.50;99.90
22526;DHT22;11429;50.842;4.386;2023-07-29T04:28:38;18.40;99.90
22526;DHT22;11429;50.842;4.386;2023-07-29T04:31:04;18.30;99.90
22526;DHT22;11429;50.842;4.386;2023-07-29T04:33:30;18.40;99.90
22526;DHT22;11429;50.842;4.386;2023-07-29T04:35:56;18.30;99.90
22526;DHT22;11429;50.842;4.386;2023-07-29T04:38:30;18.40;99.90
22526;DHT22;11429;50.842;4.386;2023-07-29T04:40:56;18.30;99.90
22526;DHT22;11429;50.842;4.386;2023-07-29T04:43:22;18.30;99.90
22526;DHT22;11429;50.842;4.386;2023-07-29T04:45:47;18.30;99.90
22526;DHT22;11429;50.842;4.386;2023-07-29T04:48:13;18.20;99.90
22526;DHT22;11429;50.842;4.386;2023-07-29T04:50:39;18.40;99.90
22526;DHT22;11429;50.842;4.386;2023-07-29T04:53:05;18.40;99.90
22526;DHT22;11429;50.842;4.386;2023-07-29T04:55:30;18.30;99.90
22526;DHT22;11429;50.842;4.386;2023-07-29T04:57:56;18.30;99.90
22526;DHT22;11429;50.842;4.386;2023-07-29T05:00:22;18.30;99.90
22526;DHT22;11429;50.842;4.386;2023-07-29T05:02:47;18.30;99.90
22526;DHT22;11429;50.842;4.386;2023-07-29T05:05:13;18.30;99.90
22526;DHT22;11429;50.842;4.386;2023-07-29T05:07:39;18.30;99.90
22526;DHT22;11429;50.842;4.386;2023-07-29T05:10:05;18.40;99.90
22526;DHT22;11429;50.842;4.386;2023-07-29T05:12:31;18.40;99.90
22526;DHT22;11429;50.842;4.386;2023-07-29T05:14:58;18.40;99.90
22526;DHT22;11429;50.842;4.386;2023-07-29T05:17:24;18.40;99.90
22526;DHT22;11429;50.842;4.386;2023-07-29T05:19:49;18.40;99.90
22526;DHT22;11429;50.842;4.386;2023-07-29T05:22:15;18.60;99.90
22526;DHT22;11429;50.842;4.386;2023-07-29T05:24:40;19.00;99.90
22526;DHT22;11429;50.842;4.386;2023-07-29T05:27:07;19.10;99.90
22526;DHT22;11429;50.842;4.386;2023-07-29T05:29:34;19.60;99.90
22526;DHT22;11429;50.842;4.386;2023-07-29T05:31:59;20.30;99.90
22526;DHT22;11429;50.842;4.386;2023-07-29T05:34:26;20.30;99.90
22526;DHT22;11429;50.842;4.386;2023-07-29T05:36:51;19.80;99.90
22526;DHT22;11429;50.842;4.386;2023-07-29T05:39:17;19.70;99.90
22526;DHT22;11429;50.842;4.386;2023-07-29T05:41:43;19.90;99.90
22526;DHT22;11429;50.842;4.386;2023-07-29T05:44:08;21.00;99.90
22526;DHT22;11429;50.842;4.386;2023-07-29T05:46:34;22.90;99.90
22526;DHT22;11429;50.842;4.386;2023-07-29T05:49:00;24.70;99.90
22526;DHT22;11429;50.842;4.386;2023-07-29T05:51:25;25.50;99.90
22526;DHT22;11429;50.842;4.386;2023-07-29T05:53:51;25.70;99.90
22526;DHT22;11429;50.842;4.386;2023-07-29T05:56:17;26.40;99.90
22526;DHT22;11429;50.842;4.386;2023-07-29T05:58:42;26.30;99.90
22526;DHT22;11429;50.842;4.386;2023-07-29T06:01:09;25.80;99.90
22526;DHT22;11429;50.842;4.386;2023-07-29T06:03:35;24.90;99.90
22526;DHT22;11429;50.842;4.386;2023-07-29T06:06:00;23.50;99.90
22526;DHT22;11429;50.842;4.386;2023-07-29T06:08:26;23.30;99.90
22526;DHT22;11429;50.842;4.386;2023-07-29T06:10:54;23.30;99.90
22526;DHT22;11429;50.842;4.386;2023-07-29T06:13:19;23.60;99.90
22526;DHT22;11429;50.842;4.386;2023-07-29T06:15:45;24.30;99.90
22526;DHT22;11429;50.842;4.386;2023-07-29T06:18:11;25.10;99.90
22526;DHT22;11429;50.842;4.386;2023-07-29T06:20:37;26.20;99.90
22526;DHT22;11429;50.842;4.386;2023-07-29T06:23:02;26.50;99.90
22526;DHT22;11429;50.842;4.386;2023-07-29T06:25:28;27.20;99.90
22526;DHT22;11429;50.842;4.386;2023-07-29T06:27:53;26.40;99.90
22526;DHT22;11429;50.842;4.386;2023-07-29T06:30:19;25.50;99.90
22526;DHT22;11429;50.842;4.386;2023-07-29T06:32:45;24.90;99.90
22526;DHT22;11429;50.842;4.386;2023-07-29T06:35:10;23.90;99.90
22526;DHT22;11429;50.842;4.386;2023-07-29T06:37:36;23.50;99.90
22526;DHT22;11429;50.842;4.386;2023-07-29T06:40:02;23.60;99.90
22526;DHT22;11429;50.842;4.386;2023-07-29T06:42:28;24.00;99.90
22526;DHT22;11429;50.842;4.386;2023-07-29T06:44:54;24.00;99.90
22526;DHT22;11429;50.842;4.386;2023-07-29T06:47:19;24.10;99.90
22526;DHT22;11429;50.842;4.386;2023-07-29T06:49:46;24.70;99.90
22526;DHT22;11429;50.842;4.386;2023-07-29T06:52:12;25.20;99.90
22526;DHT22;11429;50.842;4.386;2023-07-29T06:54:37;24.50;99.90
22526;DHT22;11429;50.842;4.386;2023-07-29T06:57:03;24.20;99.90
22526;DHT22;11429;50.842;4.386;2023-07-29T06:59:29;24.00;99.90
22526;DHT22;11429;50.842;4.386;2023-07-29T07:01:55;23.50;99.90
22526;DHT22;11429;50.842;4.386;2023-07-29T07:04:20;23.10;99.90
22526;DHT22;11429;50.842;4.386;2023-07-29T07:06:46;22.40;99.90
22526;DHT22;11429;50.842;4.386;2023-07-29T07:09:11;22.20;99.90
22526;DHT22;11429;50.842;4.386;2023-07-29T07:11:37;21.50;99.90
22526;DHT22;11429;50.842;4.386;2023-07-29T07:14:03;21.50;99.90
22526;DHT22;11429;50.842;4.386;2023-07-29T07:16:28;21.30;99.90
22526;DHT22;11429;50.842;4.386;2023-07-29T07:18:57;21.20;99.90
22526;DHT22;11429;50.842;4.386;2023-07-29T07:21:23;21.10;99.90
22526;DHT22;11429;50.842;4.386;2023-07-29T07:23:51;21.50;99.90
22526;DHT22;11429;50.842;4.386;2023-07-29T07:26:17;21.50;99.90
22526;DHT22;11429;50.842;4.386;2023-07-29T07:28:43;21.50;99.90
22526;DHT22;11429;50.842;4.386;2023-07-29T07:31:08;21.40;99.90
22526;DHT22;11429;50.842;4.386;2023-07-29T07:33:34;21.30;99.90
22526;DHT22;11429;50.842;4.386;2023-07-29T07:35:59;21.50;99.90
22526;DHT22;11429;50.842;4.386;2023-07-29T07:38:25;21.40;99.90
22526;DHT22;11429;50.842;4.386;2023-07-29T07:40:57;21.30;99.90
22526;DHT22;11429;50.842;4.386;2023-07-29T07:43:23;21.20;99.90
22526;DHT22;11429;50.842;4.386;2023-07-29T07:45:49;21.00;99.90
22526;DHT22;11429;50.842;4.386;2023-07-29T07:48:15;20.80;99.90
22526;DHT22;11429;50.842;4.386;2023-07-29T07:50:42;21.10;99.90
22526;DHT22;11429;50.842;4.386;2023-07-29T07:53:08;21.40;99.90
22526;DHT22;11429;50.842;4.386;2023-07-29T07:55:34;21.80;99.90
22526;DHT22;11429;50.842;4.386;2023-07-29T07:58:00;21.70;99.90
22526;DHT22;11429;50.842;4.386;2023-07-29T08:00:25;21.50;99.90
22526;DHT22;11429;50.842;4.386;2023-07-29T08:02:51;21.30;99.90
22526;DHT22;11429;50.842;4.386;2023-07-29T08:05:17;21.50;99.90
22526;DHT22;11429;50.842;4.386;2023-07-29T08:07:43;21.80;99.90
22526;DHT22;11429;50.842;4.386;2023-07-29T08:10:09;22.10;99.90
22526;DHT22;11429;50.842;4.386;2023-07-29T08:12:35;22.70;99.90
22526;DHT22;11429;50.842;4.386;2023-07-29T08:15:00;23.70;99.90
22526;DHT22;11429;50.842;4.386;2023-07-29T08:17:26;24.50;99.90
22526;DHT22;11429;50.842;4.386;2023-07-29T08:19:52;25.00;99.90
22526;DHT22;11429;50.842;4.386;2023-07-29T08:22:17;25.10;99.90
22526;DHT22;11429;50.842;4.386;2023-07-29T08:24:43;24.30;99.90
22526;DHT22;11429;50.842;4.386;2023-07-29T08:27:09;24.20;99.90
22526;DHT22;11429;50.842;4.386;2023-07-29T08:29:35;24.10;99.90
22526;DHT22;11429;50.842;4.386;2023-07-29T08:32:01;23.70;99.90
22526;DHT22;11429;50.842;4.386;2023-07-29T08:34:26;23.80;99.90
22526;DHT22;11429;50.842;4.386;2023-07-29T08:36:52;24.00;99.90
22526;DHT22;11429;50.842;4.386;2023-07-29T08:39:18;24.30;99.90
22526;DHT22;11429;50.842;4.386;2023-07-29T08:42:07;24.00;99.90
22526;DHT22;11429;50.842;4.386;2023-07-29T08:44:41;23.80;99.90
22526;DHT22;11429;50.842;4.386;2023-07-29T08:47:07;23.60;99.90
22526;DHT22;11429;50.842;4.386;2023-07-29T08:49:34;24.10;99.90
22526;DHT22;11429;50.842;4.386;2023-07-29T08:51:59;24.30;99.90
22526;DHT22;11429;50.842;4.386;2023-07-29T08:54:26;24.30;99.90
22526;DHT22;11429;50.842;4.386;2023-07-29T08:56:52;24.30;99.90
22526;DHT22;11429;50.842;4.386;2023-07-29T08:59:19;24.90;99.90
22526;DHT22;11429;50.842;4.386;2023-07-29T09:01:46;25.40;99.90
22526;DHT22;11429;50.842;4.386;2023-07-29T09:04:12;27.60;99.90
22526;DHT22;11429;50.842;4.386;2023-07-29T09:06:39;28.40;99.90
22526;DHT22;11429;50.842;4.386;2023-07-29T09:09:07;28.50;99.90
22526;DHT22;11429;50.842;4.386;2023-07-29T09:11:33;29.80;99.90
22526;DHT22;11429;50.842;4.386;2023-07-29T09:13:59;30.80;99.90
22526;DHT22;11429;50.842;4.386;2023-07-29T09:16:25;30.70;99.90
22526;DHT22;11429;50.842;4.386;2023-07-29T09:18:52;29.20;99.90
22526;DHT22;11429;50.842;4.386;2023-07-29T09:21:26;27.50;99.90
22526;DHT22;11429;50.842;4.386;2023-07-29T09:23:54;26.70;99.90
22526;DHT22;11429;50.842;4.386;2023-07-29T09:26:24;26.20;99.90
22526;DHT22;11429;50.842;4.386;2023-07-29T09:28:55;26.00;99.90
22526;DHT22;11429;50.842;4.386;2023-07-29T09:31:25;26.30;99.90
22526;DHT22;11429;50.842;4.386;2023-07-29T09:34:04;26.10;99.90
22526;DHT22;11429;50.842;4.386;2023-07-29T09:36:32;26.60;99.90
22526;DHT22;11429;50.842;4.386;2023-07-29T09:38:58;26.90;99.90
22526;DHT22;11429;50.842;4.386;2023-07-29T09:41:27;26.80;99.90
22526;DHT22;11429;50.842;4.386;2023-07-29T09:43:58;26.40;99.90
22526;DHT22;11429;50.842;4.386;2023-07-29T09:46:25;26.20;99.90
22526;DHT22;11429;50.842;4.386;2023-07-29T09:48:57;25.10;99.90
22526;DHT22;11429;50.842;4.386;2023-07-29T09:51:23;25.00;99.90
22526;DHT22;11429;50.842;4.386;2023-07-29T09:53:51;24.60;99.90
22526;DHT22;11429;50.842;4.386;2023-07-29T09:56:25;24.40;99.90
22526;DHT22;11429;50.842;4.386;2023-07-29T09:58:52;23.90;99.90
22526;DHT22;11429;50.842;4.386;2023-07-29T10:01:18;24.20;99.90
22526;DHT22;11429;50.842;4.386;2023-07-29T10:03:44;26.70;99.90
22526;DHT22;11429;50.842;4.386;2023-07-29T10:06:11;27.80;99.90
22526;DHT22;11429;50.842;4.386;2023-07-29T10:08:39;28.70;99.90
22526;DHT22;11429;50.842;4.386;2023-07-29T10:11:06;28.20;99.90
22526;DHT22;11429;50.842;4.386;2023-07-29T10:13:33;28.30;99.90
22526;DHT22;11429;50.842;4.386;2023-07-29T10:15:59;27.80;99.90
22526;DHT22;11429;50.842;4.386;2023-07-29T10:18:28;27.40;99.90
22526;DHT22;11429;50.842;4.386;2023-07-29T10:20:54;28.20;99.90
22526;DHT22;11429;50.842;4.386;2023-07-29T10:23:22;29.00;99.90
22526;DHT22;11429;50.842;4.386;2023-07-29T10:26:10;28.60;99.90
22526;DHT22;11429;50.842;4.386;2023-07-29T10:28:40;26.90;99.90
22526;DHT22;11429;50.842;4.386;2023-07-29T10:31:06;25.60;99.90
22526;DHT22;11429;50.842;4.386;2023-07-29T10:33:33;24.60;99.90
22526;DHT22;11429;50.842;4.386;2023-07-29T10:36:00;24.30;99.90
22526;DHT22;11429;50.842;4.386;2023-07-29T10:38:26;24.10;99.90
22526;DHT22;11429;50.842;4.386;2023-07-29T10:40:54;23.60;99.90
22526;DHT22;11429;50.842;4.386;2023-07-29T10:43:33;22.80;99.90
22526;DHT22;11429;50.842;4.386;2023-07-29T10:46:18;22.70;99.90
22526;DHT22;11429;50.842;4.386;2023-07-29T10:51:27;22.40;99.90
22526;DHT22;11429;50.842;4.386;2023-07-29T10:53:56;22.70;99.90
22526;DHT22;11429;50.842;4.386;2023-07-29T10:56:35;22.80;99.90
22526;DHT22;11429;50.842;4.386;2023-07-29T11:01:51;23.00;99.90
22526;DHT22;11429;50.842;4.386;2023-07-29T11:09:53;22.60;99.90
22526;DHT22;11429;50.842;4.386;2023-07-29T11:17:49;22.40;99.90
22526;DHT22;11429;50.842;4.386;2023-07-29T11:20:16;22.30;99.90
22526;DHT22;11429;50.842;4.386;2023-07-29T11:22:42;22.30;99.90
22526;DHT22;11429;50.842;4.386;2023-07-29T11:25:10;22.60;99.90
22526;DHT22;11429;50.842;4.386;2023-07-29T11:27:37;22.40;99.90
22526;DHT22;11429;50.842;4.386;2023-07-29T11:30:08;22.10;99.90
22526;DHT22;11429;50.842;4.386;2023-07-29T11:32:35;21.90;99.90
22526;DHT22;11429;50.842;4.386;2023-07-29T11:35:08;21.90;99.90
22526;DHT22;11429;50.842;4.386;2023-07-29T11:37:35;22.20;99.90
22526;DHT22;11429;50.842;4.386;2023-07-29T11:40:01;22.20;99.90
22526;DHT22;11429;50.842;4.386;2023-07-29T11:42:28;22.80;99.90
22526;DHT22;11429;50.842;4.386;2023-07-29T11:44:57;23.60;99.90
22526;DHT22;11429;50.842;4.386;2023-07-29T11:47:24;24.30;99.90
22526;DHT22;11429;50.842;4.386;2023-07-29T11:49:50;24.20;99.90
22526;DHT22;11429;50.842;4.386;2023-07-29T11:52:16;24.50;99.90
22526;DHT22;11429;50.842;4.386;2023-07-29T11:54:47;24.70;99.90
22526;DHT22;11429;50.842;4.386;2023-07-29T11:57:13;25.30;99.90
22526;DHT22;11429;50.842;4.386;2023-07-29T11:59:40;25.20;99.90
22526;DHT22;11429;50.842;4.386;2023-07-29T12:02:12;25.10;99.90
22526;DHT22;11429;50.842;4.386;2023-07-29T12:04:39;24.70;99.90
22526;DHT22;11429;50.842;4.386;2023-07-29T12:07:06;24.40;99.90
22526;DHT22;11429;50.842;4.386;2023-07-29T12:09:32;24.20;99.90
22526;DHT22;11429;50.842;4.386;2023-07-29T12:11:58;24.00;99.90
22526;DHT22;11429;50.842;4.386;2023-07-29T12:14:28;23.70;99.90
22526;DHT22;11429;50.842;4.386;2023-07-29T12:16:55;23.10;99.90
22526;DHT22;11429;50.842;4.386;2023-07-29T12:19:21;22.80;99.90
22526;DHT22;11429;50.842;4.386;2023-07-29T12:21:48;22.30;99.90
22526;DHT22;11429;50.842;4.386;2023-07-29T12:24:14;22.20;99.90
22526;DHT22;11429;50.842;4.386;2023-07-29T12:26:41;22.40;99.90
22526;DHT22;11429;50.842;4.386;2023-07-29T12:29:17;22.60;99.90
22526;DHT22;11429;50.842;4.386;2023-07-29T12:34:21;22.20;99.90
22526;DHT22;11429;50.842;4.386;2023-07-29T12:36:51;22.30;99.90
22526;DHT22;11429;50.842;4.386;2023-07-29T12:39:18;22.10;99.90
22526;DHT22;11429;50.842;4.386;2023-07-29T12:41:44;21.90;99.90
22526;DHT22;11429;50.842;4.386;2023-07-29T12:44:10;22.40;99.90
22526;DHT22;11429;50.842;4.386;2023-07-29T12:46:36;22.80;99.90
22526;DHT22;11429;50.842;4.386;2023-07-29T12:49:02;22.90;99.90
22526;DHT22;11429;50.842;4.386;2023-07-29T12:51:27;23.20;99.90
22526;DHT22;11429;50.842;4.386;2023-07-29T12:53:56;23.10;99.90
22526;DHT22;11429;50.842;4.386;2023-07-29T12:56:21;23.20;99.90
22526;DHT22;11429;50.842;4.386;2023-07-29T12:58:47;23.40;99.90
22526;DHT22;11429;50.842;4.386;2023-07-29T13:01:14;23.50;99.90
22526;DHT22;11429;50.842;4.386;2023-07-29T13:03:47;23.70;99.90
22526;DHT22;11429;50.842;4.386;2023-07-29T13:06:12;24.00;99.90
22526;DHT22;11429;50.842;4.386;2023-07-29T13:08:38;24.30;99.90
22526;DHT22;11429;50.842;4.386;2023-07-29T13:11:04;24.70;99.90
22526;DHT22;11429;50.842;4.386;2023-07-29T13:13:30;24.50;99.90
22526;DHT22;11429;50.842;4.386;2023-07-29T13:15:57;24.40;99.90
22526;DHT22;11429;50.842;4.386;2023-07-29T13:18:23;24.30;99.90
22526;DHT22;11429;50.842;4.386;2023-07-29T13:20:49;24.30;99.90
22526;DHT22;11429;50.842;4.386;2023-07-29T13:23:15;24.30;99.90
22526;DHT22;11429;50.842;4.386;2023-07-29T13:25:41;24.10;99.90
22526;DHT22;11429;50.842;4.386;2023-07-29T13:28:09;24.20;99.90
22526;DHT22;11429;50.842;4.386;2023-07-29T13:30:35;23.80;99.90
22526;DHT22;11429;50.842;4.386;2023-07-29T13:33:01;24.00;99.90
22526;DHT22;11429;50.842;4.386;2023-07-29T13:35:27;24.00;99.90
22526;DHT22;11429;50.842;4.386;2023-07-29T13:37:52;24.60;99.90
22526;DHT22;11429;50.842;4.386;2023-07-29T13:40:18;24.90;99.90
22526;DHT22;11429;50.842;4.386;2023-07-29T13:42:44;25.20;99.90
22526;DHT22;11429;50.842;4.386;2023-07-29T13:45:10;25.20;99.90
22526;DHT22;11429;50.842;4.386;2023-07-29T13:47:36;24.70;99.90
22526;DHT22;11429;50.842;4.386;2023-07-29T21:22:03;19.10;99.90
22526;DHT22;11429;50.842;4.386;2023-07-29T21:24:29;19.00;99.90
22526;DHT22;11429;50.842;4.386;2023-07-29T21:29:27;19.10;99.90
22526;DHT22;11429;50.842;4.386;2023-07-29T21:31:52;19.20;99.90
22526;DHT22;11429;50.842;4.386;2023-07-29T21:34:18;19.30;99.90
22526;DHT22;11429;50.842;4.386;2023-07-29T21:36:44;19.20;99.90
22526;DHT22;11429;50.842;4.386;2023-07-29T21:39:09;19.20;99.90
22526;DHT22;11429;50.842;4.386;2023-07-29T21:41:35;19.30;99.90
22526;DHT22;11429;50.842;4.386;2023-07-29T21:44:02;19.20;99.90
22526;DHT22;11429;50.842;4.386;2023-07-29T21:46:27;19.00;99.90
22526;DHT22;11429;50.842;4.386;2023-07-29T21:48:53;18.90;99.90
22526;DHT22;11429;50.842;4.386;2023-07-29T21:51:19;19.00;99.90
22526;DHT22;11429;50.842;4.386;2023-07-29T21:53:45;19.00;99.90
22526;DHT22;11429;50.842;4.386;2023-07-29T21:56:11;19.00;99.90
22526;DHT22;11429;50.842;4.386;2023-07-29T21:58:37;19.00;99.90
22526;DHT22;11429;50.842;4.386;2023-07-29T22:01:02;19.00;99.90
22526;DHT22;11429;50.842;4.386;2023-07-29T22:03:29;18.80;99.90
22526;DHT22;11429;50.842;4.386;2023-07-29T22:06:04;18.70;99.90
22526;DHT22;11429;50.842;4.386;2023-07-29T22:08:31;18.80;99.90
22526;DHT22;11429;50.842;4.386;2023-07-29T22:11:05;18.70;99.90
22526;DHT22;11429;50.842;4.386;2023-07-29T22:13:31;18.80;99.90
22526;DHT22;11429;50.842;4.386;2023-07-29T22:16:03;18.90;99.90
22526;DHT22;11429;50.842;4.386;2023-07-29T22:18:29;19.00;99.90
22526;DHT22;11429;50.842;4.386;2023-07-29T22:20:57;18.90;99.90
22526;DHT22;11429;50.842;4.386;2023-07-29T22:23:23;18.80;99.90
22526;DHT22;11429;50.842;4.386;2023-07-29T22:26:03;18.90;99.90
22526;DHT22;11429;50.842;4.386;2023-07-29T22:28:31;18.80;99.90
22526;DHT22;11429;50.842;4.386;2023-07-29T22:30:58;18.60;99.90
22526;DHT22;11429;50.842;4.386;2023-07-29T22:33:26;18.80;99.90
22526;DHT22;11429;50.842;4.386;2023-07-29T22:35:51;18.60;99.90
22526;DHT22;11429;50.842;4.386;2023-07-29T22:38:17;18.60;99.90
22526;DHT22;11429;50.842;4.386;2023-07-29T22:40:50;18.50;99.90
22526;DHT22;11429;50.842;4.386;2023-07-29T22:43:17;18.60;99.90
22526;DHT22;11429;50.842;4.386;2023-07-29T22:45:48;18.50;99.90
22526;DHT22;11429;50.842;4.386;2023-07-29T22:48:14;18.50;99.90
22526;DHT22;11429;50.842;4.386;2023-07-29T22:50:40;18.50;99.90
22526;DHT22;11429;50.842;4.386;2023-07-29T22:53:05;18.40;99.90
22526;DHT22;11429;50.842;4.386;2023-07-29T22:55:31;18.50;99.90
22526;DHT22;11429;50.842;4.386;2023-07-29T22:57:56;18.30;99.90
22526;DHT22;11429;50.842;4.386;2023-07-29T23:00:22;18.30;99.90
22526;DHT22;11429;50.842;4.386;2023-07-29T23:02:48;18.10;99.90
22526;DHT22;11429;50.842;4.386;2023-07-29T23:05:13;18.10;99.90
22526;DHT22;11429;50.842;4.386;2023-07-29T23:07:39;18.20;99.90
22526;DHT22;11429;50.842;4.386;2023-07-29T23:10:05;18.10;99.90
22526;DHT22;11429;50.842;4.386;2023-07-29T23:12:33;18.00;99.90
22526;DHT22;11429;50.842;4.386;2023-07-29T23:14:59;18.00;99.90
22526;DHT22;11429;50.842;4.386;2023-07-29T23:17:25;18.00;99.90
22526;DHT22;11429;50.842;4.386;2023-07-29T23:19:50;17.90;99.90
22526;DHT22;11429;50.842;4.386;2023-07-29T23:22:16;17.90;99.90
22526;DHT22;11429;50.842;4.386;2023-07-29T23:24:42;17.80;99.90